createdAt,value
2018-11-01T00:01:40.978Z,1.67
2018-11-01T00:04:09.505Z,1.87
2018-11-01T00:06:38.003Z,2.10
2018-11-01T00:09:08.752Z,2.92
2018-11-01T00:11:37.318Z,1.97
2018-11-01T00:14:07.251Z,4.95
2018-11-01T00:16:36.055Z,5.10
2018-11-01T00:19:05.202Z,6.40
2018-11-01T00:21:33.827Z,5.93
2018-11-01T00:24:02.406Z,7.35
2018-11-01T00:26:30.895Z,6.80
2018-11-01T00:28:59.625Z,5.80
2018-11-01T00:31:28.116Z,6.90
2018-11-01T00:33:56.643Z,6.30
2018-11-01T00:36:25.113Z,7.47
2018-11-01T00:38:53.642Z,6.37
2018-11-01T00:41:22.345Z,6.97
2018-11-01T00:43:51.313Z,7.57
2018-11-01T00:46:19.954Z,7.93
2018-11-01T00:48:48.698Z,6.80
2018-11-01T00:51:17.218Z,7.37
2018-11-01T00:53:45.857Z,6.70
2018-11-01T00:56:14.685Z,6.90
2018-11-01T00:58:43.174Z,7.03
2018-11-01T01:01:11.691Z,7.60
2018-11-01T01:03:40.190Z,7.30
2018-11-01T01:06:08.758Z,6.87
2018-11-01T01:08:37.566Z,8.00
2018-11-01T01:11:06.494Z,6.87
2018-11-01T01:13:35.011Z,8.23
2018-11-01T01:16:03.955Z,7.40
2018-11-01T01:18:32.647Z,7.53
2018-11-01T01:21:01.299Z,7.53
2018-11-01T01:23:29.951Z,7.87
2018-11-01T01:25:59.318Z,7.77
2018-11-01T01:28:27.838Z,6.30
2018-11-01T01:30:56.660Z,7.28
2018-11-01T01:33:25.447Z,7.50
2018-11-01T01:35:53.964Z,6.05
2018-11-01T01:38:22.468Z,7.10
2018-11-01T01:40:51.337Z,7.47
2018-11-01T01:43:19.849Z,6.95
2018-11-01T01:45:48.314Z,7.63
2018-11-01T01:48:17.223Z,7.37
2018-11-01T01:50:45.765Z,6.40
2018-11-01T01:53:14.216Z,5.90
2018-11-01T01:55:42.820Z,4.80
2018-11-01T01:58:11.923Z,4.50
2018-11-01T02:00:40.433Z,4.20
2018-11-01T02:03:08.939Z,4.00
2018-11-01T02:05:37.461Z,3.33
2018-11-01T02:08:06.450Z,5.23
2018-11-01T02:10:34.967Z,4.63
2018-11-01T02:13:03.490Z,5.47
2018-11-01T02:15:32.183Z,4.60
2018-11-01T02:18:00.683Z,4.50
2018-11-01T02:20:29.249Z,5.40
2018-11-01T02:22:57.760Z,4.50
2018-11-01T02:25:26.522Z,4.97
2018-11-01T02:28:00.250Z,5.30
2018-11-01T02:30:28.720Z,5.40
2018-11-01T02:32:57.214Z,6.37
2018-11-01T02:35:25.703Z,6.20
2018-11-01T02:37:54.275Z,5.20
2018-11-01T02:40:22.768Z,6.70
2018-11-01T02:42:51.251Z,7.20
2018-11-01T02:45:20.078Z,6.93
2018-11-01T02:47:48.817Z,6.97
2018-11-01T02:50:17.337Z,7.60
2018-11-01T02:52:45.802Z,7.97
2018-11-01T02:55:14.617Z,6.73
2018-11-01T02:57:43.127Z,8.13
2018-11-01T03:00:13.511Z,7.00
2018-11-01T03:02:41.988Z,7.80
2018-11-01T03:05:11.578Z,8.07
2018-11-01T03:07:40.538Z,6.77
2018-11-01T03:10:10.683Z,7.33
2018-11-01T03:12:39.898Z,7.20
2018-11-01T03:15:10.398Z,6.83
2018-11-01T03:17:38.999Z,7.92
2018-11-01T03:20:08.731Z,7.77
2018-11-01T03:22:37.510Z,8.40
2018-11-01T03:25:06.607Z,9.00
2018-11-01T03:27:35.143Z,7.80
2018-11-01T03:30:03.726Z,7.80
2018-11-01T03:32:32.612Z,7.35
2018-11-01T03:35:01.314Z,8.67
2018-11-01T03:37:30.115Z,7.40
2018-11-01T03:39:58.649Z,7.17
2018-11-01T03:42:27.179Z,7.40
2018-11-01T03:44:55.890Z,6.80
2018-11-01T03:47:24.922Z,8.35
2018-11-01T03:49:53.759Z,6.60
2018-11-01T03:52:22.299Z,6.90
2018-11-01T03:54:50.820Z,6.87
2018-11-01T03:57:19.574Z,8.30
2018-11-01T03:59:48.192Z,7.03
2018-11-01T04:02:16.662Z,7.00
2018-11-01T04:04:45.158Z,6.67
2018-11-01T04:07:13.707Z,6.03
2018-11-01T04:09:42.458Z,6.12
2018-11-01T04:12:11.336Z,7.07
2018-11-01T04:14:40.117Z,6.83
2018-11-01T04:17:08.685Z,6.97
2018-11-01T04:19:37.208Z,6.85
2018-11-01T04:22:06.728Z,6.63
2018-11-01T04:24:36.684Z,7.17
2018-11-01T04:27:05.647Z,6.20
2018-11-01T04:29:35.779Z,7.33
2018-11-01T04:32:04.992Z,7.73
2018-11-01T04:34:33.536Z,8.37
2018-11-01T04:37:01.986Z,8.47
2018-11-01T04:39:31.606Z,8.18
2018-11-01T04:42:00.290Z,8.43
2018-11-01T04:44:28.742Z,7.13
2018-11-01T04:46:57.278Z,8.30
2018-11-01T04:49:25.735Z,7.40
2018-11-01T04:51:54.232Z,8.07
2018-11-01T04:54:22.752Z,7.93
2018-11-01T04:56:51.222Z,7.27
2018-11-01T04:59:19.665Z,7.30
2018-11-01T05:01:48.224Z,8.40
2018-11-01T05:04:16.704Z,8.50
2018-11-01T05:06:45.283Z,6.60
2018-11-01T05:09:14.062Z,8.50
2018-11-01T05:11:42.548Z,7.93
2018-11-01T05:14:11.144Z,7.43
2018-11-01T05:16:39.600Z,7.15
2018-11-01T05:19:08.224Z,7.83
2018-11-01T05:21:36.704Z,8.17
2018-11-01T05:24:05.859Z,7.37
2018-11-01T05:26:34.895Z,7.23
2018-11-01T05:29:03.599Z,6.70
2018-11-01T05:31:32.373Z,8.57
2018-11-01T05:34:00.948Z,7.00
2018-11-01T05:36:29.441Z,8.57
2018-11-01T05:38:57.907Z,7.20
2018-11-01T05:41:26.398Z,8.78
2018-11-01T05:43:54.844Z,8.30
2018-11-01T05:46:23.612Z,7.53
2018-11-01T05:48:52.088Z,8.50
2018-11-01T05:51:20.587Z,15.37
2018-11-01T05:53:49.269Z,9.20
2018-11-01T05:56:17.741Z,7.50
2018-11-01T05:58:46.311Z,11.38
2018-11-01T06:01:18.930Z,10.50
2018-11-01T06:03:47.437Z,10.50
2018-11-01T06:06:15.917Z,7.97
2018-11-01T06:08:46.231Z,6.63
2018-11-01T06:11:14.788Z,6.63
2018-11-01T06:13:43.240Z,6.10
2018-11-01T06:16:12.396Z,6.57
2018-11-01T06:18:41.194Z,7.10
2018-11-01T06:21:09.682Z,7.83
2018-11-01T06:23:38.215Z,7.57
2018-11-01T06:26:06.779Z,6.50
2018-11-01T06:28:35.276Z,7.10
2018-11-01T06:31:03.748Z,7.30
2018-11-01T06:33:32.246Z,6.63
2018-11-01T06:36:03.600Z,6.10
2018-11-01T06:38:32.388Z,7.30
2018-11-01T06:41:01.087Z,7.13
2018-11-01T06:43:29.594Z,6.90
2018-11-01T06:45:58.137Z,5.97
2018-11-01T06:48:26.668Z,6.13
2018-11-01T06:50:55.164Z,5.10
2018-11-01T06:53:23.620Z,4.00
2018-11-01T06:55:52.447Z,4.85
2018-11-01T06:58:20.969Z,6.00
2018-11-01T07:00:49.417Z,6.27
2018-11-01T07:03:17.916Z,6.30
2018-11-01T07:05:46.484Z,4.30
2018-11-01T07:08:14.863Z,5.33
2018-11-01T07:10:43.343Z,4.23
2018-11-01T07:13:11.813Z,8.00
2018-11-01T07:15:40.366Z,6.30
2018-11-01T07:18:09.413Z,4.60
2018-11-01T07:20:37.912Z,3.63
2018-11-01T07:23:06.788Z,4.22
2018-11-01T07:25:35.319Z,4.33
2018-11-01T07:28:04.041Z,5.60
2018-11-01T07:30:32.561Z,6.27
2018-11-01T07:33:01.240Z,7.83
2018-11-01T07:35:29.685Z,5.57
2018-11-01T07:37:58.287Z,5.53
2018-11-01T07:40:27.066Z,4.47
2018-11-01T07:42:55.813Z,4.83
2018-11-01T07:45:24.314Z,4.57
2018-11-01T07:47:53.333Z,4.08
2018-11-01T07:50:21.827Z,4.67
2018-11-01T07:52:50.643Z,2.70
2018-11-01T07:55:19.342Z,2.90
2018-11-01T07:57:47.982Z,3.17
2018-11-01T08:00:17.757Z,2.37
2018-11-01T08:02:47.165Z,3.23
2018-11-01T08:05:16.319Z,3.43
2018-11-01T08:07:44.869Z,3.30
2018-11-01T08:10:16.443Z,2.27
2018-11-01T08:12:45.883Z,1.23
2018-11-01T08:15:16.686Z,1.32
2018-11-01T08:17:45.172Z,1.10
2018-11-01T08:20:14.761Z,1.13
2018-11-01T08:22:43.393Z,1.20
2018-11-01T08:25:12.867Z,2.40
2018-11-01T08:27:42.009Z,1.80
2018-11-01T08:30:13.024Z,2.12
2018-11-01T08:32:41.574Z,3.43
2018-11-01T08:35:10.847Z,3.93
2018-11-01T08:37:40.130Z,6.53
2018-11-01T08:40:09.663Z,6.97
2018-11-01T08:42:38.620Z,6.23
2018-11-01T08:45:09.572Z,4.90
2018-11-01T08:47:38.584Z,4.87
2018-11-01T08:50:08.622Z,3.97
2018-11-01T08:52:37.459Z,5.00
2018-11-01T08:55:07.305Z,2.90
2018-11-01T08:57:35.759Z,4.43
2018-11-01T09:00:04.370Z,3.25
2018-11-01T09:02:32.852Z,1.30
2018-11-01T09:05:02.225Z,1.73
2018-11-01T09:07:30.992Z,2.30
2018-11-01T09:09:59.396Z,4.20
2018-11-01T09:12:27.844Z,2.73
2018-11-01T09:14:56.403Z,2.90
2018-11-01T09:17:24.929Z,3.57
2018-11-01T09:19:53.435Z,5.43
2018-11-01T09:22:21.877Z,6.27
2018-11-01T09:24:50.582Z,7.37
2018-11-01T09:27:19.086Z,4.90
2018-11-01T09:29:47.576Z,4.33
2018-11-01T09:32:16.084Z,4.40
2018-11-01T09:34:44.668Z,5.30
2018-11-01T09:37:13.090Z,3.97
2018-11-01T09:39:41.625Z,4.03
2018-11-01T09:42:10.104Z,3.83
2018-11-01T09:44:38.788Z,5.20
2018-11-01T09:47:07.611Z,2.40
2018-11-01T09:49:35.816Z,3.23
2018-11-01T09:52:04.320Z,3.12
2018-11-01T09:54:32.935Z,2.50
2018-11-01T09:57:01.605Z,3.10
2018-11-01T09:59:30.072Z,3.17
2018-11-01T10:01:58.592Z,4.00
2018-11-01T10:05:30.048Z,2.77
2018-11-01T10:07:58.737Z,2.50
2018-11-01T10:10:27.224Z,2.77
2018-11-01T10:12:55.767Z,2.33
2018-11-01T10:15:24.455Z,2.65
2018-11-01T10:17:53.320Z,3.27
2018-11-01T10:20:21.412Z,2.53
2018-11-01T10:22:50.022Z,2.60
2018-11-01T10:25:18.700Z,2.20
2018-11-01T10:27:47.262Z,2.13
2018-11-01T10:30:17.498Z,2.60
2018-11-01T10:32:46.502Z,2.80
2018-11-01T10:35:15.991Z,3.33
2018-11-01T10:37:44.488Z,2.60
2018-11-01T10:40:15.176Z,3.80
2018-11-01T10:42:43.760Z,3.07
2018-11-01T10:45:12.267Z,4.27
2018-11-01T10:47:40.903Z,3.60
2018-11-01T10:50:14.465Z,3.83
2018-11-01T10:52:43.143Z,2.70
2018-11-01T10:55:12.630Z,3.30
2018-11-01T10:57:41.376Z,4.40
2018-11-01T11:00:16.244Z,2.87
2018-11-01T11:02:47.036Z,3.57
2018-11-01T11:05:17.860Z,3.47
2018-11-01T11:07:46.784Z,4.10
2018-11-01T11:10:16.368Z,2.95
2018-11-01T11:12:44.833Z,3.53
2018-11-01T11:15:13.623Z,2.72
2018-11-01T11:17:42.061Z,4.10
2018-11-01T11:20:11.863Z,3.87
2018-11-01T11:22:40.517Z,4.00
2018-11-01T11:25:10.648Z,3.00
2018-11-01T11:27:39.496Z,3.90
2018-11-01T11:30:09.282Z,3.47
2018-11-01T11:32:38.345Z,3.83
2018-11-01T11:35:07.363Z,2.90
2018-11-01T11:37:36.298Z,4.12
2018-11-01T11:40:05.421Z,3.07
2018-11-01T11:42:33.918Z,4.28
2018-11-01T11:45:02.414Z,4.87
2018-11-01T11:47:30.944Z,3.80
2018-11-01T11:49:59.407Z,4.93
2018-11-01T11:52:27.878Z,3.40
2018-11-01T11:54:56.636Z,3.53
2018-11-01T11:57:25.080Z,2.77
2018-11-01T11:59:53.555Z,2.90
2018-11-01T12:02:22.013Z,3.50
2018-11-01T12:04:50.539Z,4.30
2018-11-01T12:07:19.137Z,3.57
2018-11-01T12:09:47.643Z,4.20
2018-11-01T12:12:16.120Z,4.00
2018-11-01T12:14:44.572Z,3.10
2018-11-01T12:17:13.516Z,3.55
2018-11-01T12:19:42.287Z,3.58
2018-11-01T12:22:10.807Z,3.33
2018-11-01T12:24:39.271Z,5.33
2018-11-01T12:27:07.739Z,2.93
2018-11-01T12:29:36.435Z,2.75
2018-11-01T12:32:05.136Z,2.90
2018-11-01T12:34:33.831Z,3.20
2018-11-01T12:37:02.488Z,3.73
2018-11-01T12:39:31.340Z,3.83
2018-11-01T12:41:59.812Z,2.77
2018-11-01T12:44:28.499Z,3.35
2018-11-01T12:46:57.192Z,3.40
2018-11-01T12:49:25.924Z,2.87
2018-11-01T12:51:54.635Z,2.70
2018-11-01T12:54:23.442Z,2.20
2018-11-01T12:56:52.183Z,3.72
2018-11-01T12:59:20.738Z,2.97
2018-11-01T13:01:49.624Z,2.17
2018-11-01T13:04:18.087Z,2.57
2018-11-01T13:06:46.919Z,3.37
2018-11-01T13:09:15.358Z,3.20
2018-11-01T13:11:44.380Z,2.95
2018-11-01T13:14:13.143Z,1.90
2018-11-01T13:16:41.885Z,2.13
2018-11-01T13:19:10.367Z,3.17
2018-11-01T13:21:38.831Z,2.93
2018-11-01T13:24:07.519Z,2.30
2018-11-01T13:26:36.167Z,3.10
2018-11-01T13:29:05.136Z,2.17
2018-11-01T13:31:34.121Z,3.33
2018-11-01T13:34:02.670Z,2.20
2018-11-01T13:36:31.198Z,2.10
2018-11-01T13:38:59.661Z,2.20
2018-11-01T13:41:28.160Z,2.53
2018-11-01T13:43:56.770Z,2.23
2018-11-01T13:46:25.543Z,2.27
2018-11-01T13:48:54.000Z,1.80
2018-11-01T13:51:22.504Z,2.60
2018-11-01T13:53:50.965Z,2.53
2018-11-01T13:56:19.505Z,2.30
2018-11-01T13:58:48.016Z,1.90
2018-11-01T14:01:16.878Z,2.03
2018-11-01T14:03:45.343Z,2.53
2018-11-01T14:06:13.820Z,2.03
2018-11-01T14:08:42.287Z,1.73
2018-11-01T14:11:10.999Z,1.33
2018-11-01T14:13:39.711Z,2.40
2018-11-01T14:16:08.207Z,1.67
2018-11-01T14:18:36.668Z,1.70
2018-11-01T14:21:05.151Z,2.20
2018-11-01T14:23:33.632Z,1.98
2018-11-01T14:26:02.108Z,2.33
2018-11-01T14:28:31.023Z,2.57
2018-11-01T14:30:59.928Z,3.00
2018-11-01T14:33:28.620Z,3.70
2018-11-01T14:35:57.115Z,2.20
2018-11-01T14:38:25.588Z,1.77
2018-11-01T14:40:54.058Z,1.60
2018-11-01T14:43:22.511Z,2.13
2018-11-01T14:45:51.940Z,2.47
2018-11-01T14:48:20.453Z,2.07
2018-11-01T14:50:49.394Z,1.40
2018-11-01T14:53:18.729Z,2.10
2018-11-01T14:55:47.901Z,2.17
2018-11-01T14:58:16.103Z,2.20
2018-11-01T15:00:43.423Z,3.40
2018-11-01T15:03:11.952Z,2.70
2018-11-01T15:05:40.446Z,2.10
2018-11-01T15:08:08.930Z,2.17
2018-11-01T15:10:37.567Z,2.47
2018-11-01T15:13:06.644Z,2.20
2018-11-01T15:15:35.101Z,2.30
2018-11-01T15:18:03.588Z,2.60
2018-11-01T15:20:32.300Z,1.97
2018-11-01T15:23:00.803Z,1.47
2018-11-01T15:25:29.312Z,1.70
2018-11-01T15:27:58.032Z,1.65
2018-11-01T15:30:26.526Z,2.60
2018-11-01T15:32:55.142Z,1.70
2018-11-01T15:35:23.590Z,2.00
2018-11-01T15:37:52.072Z,1.73
2018-11-01T15:40:20.643Z,2.43
2018-11-01T15:42:49.138Z,3.57
2018-11-01T15:45:17.602Z,7.40
2018-11-01T15:47:46.094Z,5.37
2018-11-01T15:50:15.247Z,6.27
2018-11-01T15:52:43.961Z,5.00
2018-11-01T15:55:12.441Z,3.23
2018-11-01T15:57:40.882Z,2.97
2018-11-01T16:00:11.282Z,2.02
2018-11-01T16:02:41.156Z,1.75
2018-11-01T16:05:10.145Z,2.37
2018-11-01T16:07:39.007Z,2.30
2018-11-01T16:10:08.600Z,1.90
2018-11-01T16:12:37.609Z,1.80
2018-11-01T16:15:08.352Z,2.10
2018-11-01T16:17:36.807Z,1.90
2018-11-01T16:20:05.670Z,3.40
2018-11-01T16:22:34.450Z,2.02
2018-11-01T16:25:03.349Z,1.73
2018-11-01T16:27:31.810Z,2.10
2018-11-01T16:30:00.373Z,2.07
2018-11-01T16:32:28.849Z,1.80
2018-11-01T16:34:57.477Z,1.60
2018-11-01T16:37:26.009Z,1.83
2018-11-01T16:39:54.624Z,1.87
2018-11-01T16:42:23.198Z,2.13
2018-11-01T16:44:51.590Z,2.07
2018-11-01T16:47:20.076Z,2.33
2018-11-01T16:49:48.765Z,2.20
2018-11-01T16:52:17.291Z,2.27
2018-11-01T16:54:45.760Z,2.03
2018-11-01T16:57:14.263Z,3.73
2018-11-01T16:59:42.764Z,2.13
2018-11-01T17:02:11.232Z,1.67
2018-11-01T17:04:40.012Z,1.57
2018-11-01T17:07:09.435Z,2.90
2018-11-01T17:09:37.924Z,4.73
2018-11-01T17:12:06.735Z,2.72
2018-11-01T17:14:35.340Z,1.60
2018-11-01T17:17:03.823Z,2.17
2018-11-01T17:19:32.540Z,1.53
2018-11-01T17:22:01.600Z,2.87
2018-11-01T17:24:30.298Z,2.17
2018-11-01T17:26:59.033Z,1.60
2018-11-01T17:29:28.031Z,1.60
2018-11-01T17:31:56.653Z,2.20
2018-11-01T17:34:25.223Z,2.10
2018-11-01T17:36:53.720Z,1.80
2018-11-01T17:39:22.258Z,1.40
2018-11-01T17:41:50.765Z,1.90
2018-11-01T17:44:19.483Z,2.17
2018-11-01T17:46:48.313Z,3.03
2018-11-01T17:49:17.119Z,3.13
2018-11-01T17:51:45.624Z,3.87
2018-11-01T17:54:14.785Z,5.57
2018-11-01T17:56:44.624Z,4.60
2018-11-01T17:59:13.507Z,4.37
2018-11-01T18:01:42.309Z,4.83
2018-11-01T18:04:11.511Z,4.43
2018-11-01T18:06:40.438Z,3.43
2018-11-01T18:09:12.076Z,3.63
2018-11-01T18:11:40.596Z,4.00
2018-11-01T18:14:09.598Z,3.20
2018-11-01T18:16:38.735Z,3.40
2018-11-01T18:19:07.495Z,5.00
2018-11-01T18:21:36.023Z,3.13
2018-11-01T18:24:05.587Z,3.83
2018-11-01T18:26:34.305Z,3.53
2018-11-01T18:29:02.925Z,3.03
2018-11-01T18:31:31.472Z,3.77
2018-11-01T18:34:00.039Z,2.40
2018-11-01T18:36:28.812Z,2.85
2018-11-01T18:38:57.432Z,2.17
2018-11-01T18:41:26.329Z,2.27
2018-11-01T18:43:54.848Z,3.00
2018-11-01T18:46:23.626Z,2.63
2018-11-01T18:48:52.131Z,2.10
2018-11-01T18:51:20.621Z,2.90
2018-11-01T18:53:49.133Z,3.47
2018-11-01T18:56:17.775Z,2.95
2018-11-01T18:58:46.259Z,1.83
2018-11-01T19:01:14.899Z,2.67
2018-11-01T19:03:43.406Z,2.63
2018-11-01T19:06:12.345Z,3.00
2018-11-01T19:08:40.848Z,3.53
2018-11-01T19:11:09.379Z,3.50
2018-11-01T19:13:38.000Z,2.80
2018-11-01T19:16:06.499Z,3.23
2018-11-01T19:18:34.904Z,3.13
2018-11-01T19:21:03.343Z,2.93
2018-11-01T19:23:31.887Z,4.10
2018-11-01T19:26:00.389Z,3.00
2018-11-01T19:28:28.981Z,3.05
2018-11-01T19:30:57.729Z,3.07
2018-11-01T19:33:26.676Z,3.00
2018-11-01T19:35:55.199Z,2.25
2018-11-01T19:38:23.878Z,3.00
2018-11-01T19:40:52.359Z,2.97
2018-11-01T19:43:20.862Z,2.40
2018-11-01T19:45:49.688Z,3.02
2018-11-01T19:48:18.250Z,2.27
2018-11-01T19:50:47.015Z,3.33
2018-11-01T19:53:15.508Z,2.07
2018-11-01T19:55:44.335Z,2.73
2018-11-01T19:58:12.885Z,7.53
2018-11-01T20:00:41.399Z,3.80
2018-11-01T20:03:09.903Z,3.90
2018-11-01T20:05:38.873Z,5.60
2018-11-01T20:08:07.410Z,2.67
2018-11-01T20:10:35.935Z,2.67
2018-11-01T20:13:04.475Z,1.85
2018-11-01T20:15:33.002Z,6.83
2018-11-01T20:18:01.496Z,3.90
2018-11-01T20:20:30.256Z,2.63
2018-11-01T20:22:59.707Z,3.37
2018-11-01T20:25:28.223Z,6.30
2018-11-01T20:27:56.754Z,4.03
2018-11-01T20:30:25.249Z,3.05
2018-11-01T20:32:53.783Z,6.90
2018-11-01T20:35:22.518Z,4.33
2018-11-01T20:37:51.129Z,6.75
2018-11-01T20:40:19.897Z,3.73
2018-11-01T20:42:48.362Z,2.45
2018-11-01T20:45:16.903Z,2.60
2018-11-01T20:47:45.460Z,2.83
2018-11-01T20:50:14.980Z,5.00
2018-11-01T20:52:43.473Z,3.72
2018-11-01T20:55:12.024Z,4.50
2018-11-01T20:57:40.616Z,2.85
2018-11-01T21:00:10.983Z,2.30
2018-11-01T21:02:40.066Z,6.00
2018-11-01T21:05:09.134Z,5.10
2018-11-01T21:07:37.536Z,3.60
2018-11-01T21:10:07.377Z,7.00
2018-11-01T21:12:36.244Z,3.22
2018-11-01T21:15:05.996Z,3.60
2018-11-01T21:17:34.491Z,4.07
2018-11-01T21:20:03.291Z,3.83
2018-11-01T21:22:31.734Z,7.30
2018-11-01T21:25:00.388Z,3.67
2018-11-01T21:27:28.908Z,3.00
2018-11-01T21:29:57.487Z,5.00
2018-11-01T21:32:26.004Z,4.70
2018-11-01T21:34:54.563Z,3.62
2018-11-01T21:37:23.402Z,3.57
2018-11-01T21:39:51.872Z,3.87
2018-11-01T21:42:20.519Z,4.00
2018-11-01T21:44:49.351Z,4.12
2018-11-01T21:47:17.835Z,3.70
2018-11-01T21:49:46.340Z,3.43
2018-11-01T21:52:14.852Z,3.90
2018-11-01T21:54:43.646Z,2.97
2018-11-01T21:57:12.131Z,2.90
2018-11-01T21:59:40.617Z,3.73
2018-11-01T22:02:09.120Z,4.33
2018-11-01T22:04:37.667Z,5.40
2018-11-01T22:07:06.604Z,4.60
2018-11-01T22:09:36.184Z,3.67
2018-11-01T22:12:05.444Z,5.10
2018-11-01T22:14:33.964Z,6.13
2018-11-01T22:17:02.664Z,4.60
2018-11-01T22:19:31.463Z,6.13
2018-11-01T22:21:59.964Z,5.27
2018-11-01T22:24:28.461Z,5.03
2018-11-01T22:26:57.200Z,5.63
2018-11-01T22:29:25.735Z,5.40
2018-11-01T22:31:54.203Z,6.70
2018-11-01T22:34:23.092Z,5.60
2018-11-01T22:36:51.582Z,5.40
2018-11-01T22:39:20.041Z,6.30
2018-11-01T22:41:48.551Z,5.27
2018-11-01T22:44:17.005Z,5.03
2018-11-01T22:46:45.650Z,6.40
2018-11-01T22:49:14.099Z,5.37
2018-11-01T22:51:42.692Z,5.27
2018-11-01T22:54:11.169Z,4.73
2018-11-01T22:56:39.683Z,5.37
2018-11-01T22:59:08.322Z,5.93
2018-11-01T23:01:36.815Z,4.57
2018-11-01T23:04:05.695Z,5.30
2018-11-01T23:06:34.184Z,6.40
2018-11-01T23:09:03.303Z,5.00
2018-11-01T23:11:31.782Z,5.30
2018-11-01T23:14:00.301Z,5.80
2018-11-01T23:16:28.755Z,5.40
2018-11-01T23:18:57.174Z,5.87
2018-11-01T23:21:25.680Z,6.33
2018-11-01T23:23:54.272Z,5.80
2018-11-01T23:26:22.855Z,5.67
2018-11-01T23:28:51.548Z,5.00
2018-11-01T23:31:20.035Z,6.00
2018-11-01T23:33:48.529Z,6.43
2018-11-01T23:36:16.232Z,6.20
2018-11-01T23:38:49.934Z,6.97
2018-11-01T23:41:23.713Z,7.50
2018-11-01T23:43:57.383Z,5.28
2018-11-01T23:46:31.255Z,5.47
2018-11-01T23:49:16.462Z,5.80
2018-11-01T23:51:51.599Z,6.73
2018-11-01T23:54:20.100Z,5.63
2018-11-01T23:56:48.945Z,6.37
2018-11-01T23:59:17.452Z,5.47
